createdAt,value
2022-07-31T00:00:20.833Z,0.12
2022-07-31T00:12:21.305Z,0.18
2022-07-31T00:24:21.708Z,0.02
2022-07-31T00:36:22.200Z,0.02
2022-07-31T00:48:22.647Z,0.52
2022-07-31T01:00:23.125Z,0.61
2022-07-31T01:12:23.563Z,0.43
2022-07-31T01:24:24.003Z,0.09
2022-07-31T01:36:24.484Z,0.07
2022-07-31T01:48:24.921Z,0.34
2022-07-31T02:00:34.616Z,0.12
2022-07-31T02:12:32.250Z,0.10
2022-07-31T02:24:26.307Z,0.13
2022-07-31T02:36:26.749Z,0.27
2022-07-31T02:48:27.170Z,0.01
2022-07-31T03:00:27.756Z,0.04
2022-07-31T03:12:28.079Z,0.26
2022-07-31T03:24:28.534Z,0.56
2022-07-31T03:36:28.962Z,0.41
2022-07-31T03:48:29.467Z,0.08
2022-07-31T04:00:29.935Z,0.13
2022-07-31T04:12:30.374Z,0.16
2022-07-31T04:24:30.823Z,0.21
2022-07-31T04:36:31.296Z,0.02
2022-07-31T04:48:31.769Z,0.09
2022-07-31T05:00:32.174Z,0.57
2022-07-31T05:12:32.635Z,0.24
2022-07-31T05:24:34.106Z,0.25
2022-07-31T05:36:33.547Z,0.22
2022-07-31T05:48:34.024Z,2.44
2022-07-31T06:00:34.436Z,2.52
2022-07-31T06:12:34.882Z,2.76
2022-07-31T06:24:35.394Z,2.94
2022-07-31T06:36:35.829Z,1.63
2022-07-31T06:48:36.276Z,2.63
2022-07-31T07:00:36.716Z,2.08
2022-07-31T07:12:37.197Z,2.26
2022-07-31T07:24:37.647Z,3.26
2022-07-31T07:36:38.111Z,3.71
2022-07-31T07:48:38.549Z,1.75
2022-07-31T08:00:39.035Z,2.48
2022-07-31T08:12:39.465Z,2.60
2022-07-31T08:24:39.935Z,3.26
2022-07-31T08:36:40.380Z,2.86
2022-07-31T08:48:40.834Z,3.13
2022-07-31T09:00:41.303Z,2.83
2022-07-31T09:12:41.736Z,2.66
2022-07-31T09:24:42.164Z,4.39
2022-07-31T09:36:42.647Z,3.33
2022-07-31T09:48:43.437Z,2.47
2022-07-31T10:00:43.705Z,2.64
2022-07-31T10:12:43.991Z,2.04
2022-07-31T10:24:44.515Z,3.30
2022-07-31T10:36:44.946Z,2.96
2022-07-31T10:48:45.535Z,4.12
2022-07-31T11:00:45.855Z,2.70
2022-07-31T11:12:46.281Z,3.33
2022-07-31T11:24:46.742Z,4.20
2022-07-31T11:36:51.181Z,3.74
2022-07-31T11:48:47.683Z,2.14
2022-07-31T12:00:48.144Z,2.61
2022-07-31T12:12:48.560Z,3.04
2022-07-31T12:24:49.030Z,2.02
2022-07-31T12:36:49.462Z,2.62
2022-07-31T12:48:50.047Z,2.53
2022-07-31T13:00:50.410Z,2.90
2022-07-31T13:12:50.837Z,1.41
2022-07-31T13:24:51.294Z,2.72
2022-07-31T13:36:51.790Z,2.38
2022-07-31T13:48:52.281Z,1.85
2022-07-31T14:00:52.684Z,2.36
2022-07-31T14:12:53.118Z,3.56
2022-07-31T14:24:53.609Z,3.18
2022-07-31T14:36:54.065Z,3.41
2022-07-31T14:48:54.551Z,3.13
2022-07-31T15:00:54.961Z,2.07
2022-07-31T15:12:55.460Z,2.62
2022-07-31T15:24:55.883Z,2.19
2022-07-31T15:36:56.333Z,2.42
2022-07-31T15:48:56.828Z,2.25
2022-07-31T16:00:57.399Z,1.67
2022-07-31T16:12:57.753Z,1.76
2022-07-31T16:24:58.167Z,2.34
2022-07-31T16:36:58.597Z,2.37
2022-07-31T16:48:59.171Z,1.27
2022-07-31T17:00:59.593Z,1.94
2022-07-31T17:12:59.982Z,0.94
2022-07-31T17:25:00.446Z,1.60
2022-07-31T17:37:00.959Z,1.35
2022-07-31T17:49:01.447Z,0.32
2022-07-31T18:01:01.820Z,0.24
2022-07-31T18:13:02.281Z,0.05
2022-07-31T18:25:02.757Z,0.00
2022-07-31T18:37:03.214Z,0.02
2022-07-31T18:49:03.702Z,0.00
2022-07-31T19:01:04.106Z,0.00
2022-07-31T19:13:04.589Z,0.00
2022-07-31T19:25:05.017Z,0.00
2022-07-31T19:37:05.428Z,0.12
2022-07-31T19:49:05.968Z,0.00
2022-07-31T20:01:06.416Z,0.03
2022-07-31T20:13:06.841Z,0.02
2022-07-31T20:25:19.492Z,0.07
2022-07-31T20:37:07.747Z,0.02
2022-07-31T20:49:08.263Z,0.02
2022-07-31T21:01:08.722Z,0.06
2022-07-31T21:13:09.117Z,0.02
2022-07-31T21:25:09.569Z,0.01
2022-07-31T21:37:10.015Z,0.06
2022-07-31T21:49:10.513Z,0.00
2022-07-31T22:01:10.995Z,0.00
2022-07-31T22:13:11.376Z,0.14
2022-07-31T22:25:11.878Z,0.06
2022-07-31T22:37:12.260Z,0.08
2022-07-31T22:49:12.754Z,0.01
2022-07-31T23:01:13.205Z,0.00
2022-07-31T23:13:13.649Z,0.32
2022-07-31T23:25:14.094Z,0.00
2022-07-31T23:37:14.543Z,0.00
2022-07-31T23:49:15.078Z,0.01
